sensor_id;sensor_type;location;lat;lon;timestamp;P1;durP1;ratioP1;P2;durP2;ratioP2
37425;SDS011;23285;50.180;7.036;2022-12-07T00:00:00;13.30;;;10.53;;
37425;SDS011;23285;50.180;7.036;2022-12-07T00:02:45;13.00;;;11.40;;
37425;SDS011;23285;50.180;7.036;2022-12-07T00:05:30;15.30;;;12.07;;
37425;SDS011;23285;50.180;7.036;2022-12-07T00:08:15;13.53;;;11.40;;
37425;SDS011;23285;50.180;7.036;2022-12-07T00:11:10;13.20;;;11.00;;
37425;SDS011;23285;50.180;7.036;2022-12-07T00:14:01;14.97;;;11.73;;
37425;SDS011;23285;50.180;7.036;2022-12-07T00:16:48;15.20;;;11.57;;
37425;SDS011;23285;50.180;7.036;2022-12-07T00:19:34;18.00;;;13.67;;
37425;SDS011;23285;50.180;7.036;2022-12-07T00:22:19;17.03;;;12.83;;
37425;SDS011;23285;50.180;7.036;2022-12-07T00:25:05;15.50;;;11.97;;
37425;SDS011;23285;50.180;7.036;2022-12-07T00:27:51;18.20;;;13.27;;
37425;SDS011;23285;50.180;7.036;2022-12-07T00:30:37;15.10;;;12.40;;
37425;SDS011;23285;50.180;7.036;2022-12-07T00:33:22;12.70;;;10.70;;
37425;SDS011;23285;50.180;7.036;2022-12-07T00:36:08;14.03;;;11.33;;
37425;SDS011;23285;50.180;7.036;2022-12-07T00:38:54;16.70;;;13.10;;
37425;SDS011;23285;50.180;7.036;2022-12-07T00:41:39;15.07;;;11.80;;
37425;SDS011;23285;50.180;7.036;2022-12-07T00:44:25;14.70;;;11.27;;
37425;SDS011;23285;50.180;7.036;2022-12-07T00:47:10;15.13;;;12.17;;
37425;SDS011;23285;50.180;7.036;2022-12-07T00:49:55;16.23;;;13.83;;
37425;SDS011;23285;50.180;7.036;2022-12-07T00:52:40;14.77;;;12.73;;
37425;SDS011;23285;50.180;7.036;2022-12-07T00:55:25;12.60;;;11.30;;
37425;SDS011;23285;50.180;7.036;2022-12-07T00:58:10;16.37;;;12.13;;
37425;SDS011;23285;50.180;7.036;2022-12-07T01:00:55;16.03;;;12.17;;
37425;SDS011;23285;50.180;7.036;2022-12-07T01:03:48;16.93;;;13.10;;
37425;SDS011;23285;50.180;7.036;2022-12-07T01:06:33;15.33;;;13.17;;
37425;SDS011;23285;50.180;7.036;2022-12-07T01:09:18;16.70;;;13.77;;
37425;SDS011;23285;50.180;7.036;2022-12-07T01:12:04;14.23;;;12.23;;
37425;SDS011;23285;50.180;7.036;2022-12-07T01:14:49;16.83;;;13.30;;
37425;SDS011;23285;50.180;7.036;2022-12-07T01:17:34;20.13;;;13.43;;
37425;SDS011;23285;50.180;7.036;2022-12-07T01:20:19;20.10;;;14.20;;
37425;SDS011;23285;50.180;7.036;2022-12-07T01:23:04;17.40;;;13.17;;
37425;SDS011;23285;50.180;7.036;2022-12-07T01:25:54;16.83;;;13.17;;
37425;SDS011;23285;50.180;7.036;2022-12-07T01:28:39;22.03;;;16.67;;
37425;SDS011;23285;50.180;7.036;2022-12-07T01:31:25;22.23;;;14.70;;
37425;SDS011;23285;50.180;7.036;2022-12-07T01:34:11;21.03;;;14.90;;
37425;SDS011;23285;50.180;7.036;2022-12-07T01:36:56;23.77;;;16.57;;
37425;SDS011;23285;50.180;7.036;2022-12-07T01:39:41;27.93;;;19.27;;
37425;SDS011;23285;50.180;7.036;2022-12-07T01:42:27;22.73;;;16.37;;
37425;SDS011;23285;50.180;7.036;2022-12-07T01:48:17;21.80;;;15.27;;
37425;SDS011;23285;50.180;7.036;2022-12-07T01:51:10;20.63;;;15.80;;
37425;SDS011;23285;50.180;7.036;2022-12-07T01:53:57;20.27;;;16.00;;
37425;SDS011;23285;50.180;7.036;2022-12-07T01:56:44;24.80;;;17.03;;
37425;SDS011;23285;50.180;7.036;2022-12-07T01:59:36;18.53;;;15.67;;
37425;SDS011;23285;50.180;7.036;2022-12-07T02:02:45;20.27;;;15.30;;
37425;SDS011;23285;50.180;7.036;2022-12-07T02:05:28;22.17;;;16.30;;
37425;SDS011;23285;50.180;7.036;2022-12-07T02:08:13;20.27;;;16.17;;
37425;SDS011;23285;50.180;7.036;2022-12-07T02:10:59;17.67;;;14.77;;
37425;SDS011;23285;50.180;7.036;2022-12-07T02:13:46;20.93;;;16.27;;
37425;SDS011;23285;50.180;7.036;2022-12-07T02:16:38;15.03;;;12.80;;
37425;SDS011;23285;50.180;7.036;2022-12-07T02:23:14;14.80;;;11.93;;
37425;SDS011;23285;50.180;7.036;2022-12-07T02:30:12;16.87;;;13.63;;
37425;SDS011;23285;50.180;7.036;2022-12-07T02:32:59;14.80;;;11.33;;
37425;SDS011;23285;50.180;7.036;2022-12-07T02:35:56;13.27;;;11.00;;
37425;SDS011;23285;50.180;7.036;2022-12-07T02:38:50;14.63;;;12.23;;
37425;SDS011;23285;50.180;7.036;2022-12-07T02:41:38;15.93;;;12.40;;
37425;SDS011;23285;50.180;7.036;2022-12-07T02:44:28;12.60;;;10.70;;
37425;SDS011;23285;50.180;7.036;2022-12-07T02:47:16;11.33;;;10.13;;
37425;SDS011;23285;50.180;7.036;2022-12-07T02:50:05;10.63;;;9.53;;
37425;SDS011;23285;50.180;7.036;2022-12-07T02:52:51;14.00;;;11.67;;
37425;SDS011;23285;50.180;7.036;2022-12-07T02:55:37;12.20;;;10.23;;
37425;SDS011;23285;50.180;7.036;2022-12-07T03:05:57;12.73;;;10.73;;
37425;SDS011;23285;50.180;7.036;2022-12-07T03:11:30;12.10;;;9.97;;
37425;SDS011;23285;50.180;7.036;2022-12-07T03:14:29;11.37;;;9.60;;
37425;SDS011;23285;50.180;7.036;2022-12-07T03:17:16;11.67;;;9.73;;
37425;SDS011;23285;50.180;7.036;2022-12-07T03:20:03;12.00;;;9.80;;
37425;SDS011;23285;50.180;7.036;2022-12-07T03:22:50;11.40;;;10.20;;
37425;SDS011;23285;50.180;7.036;2022-12-07T03:25:39;11.43;;;9.10;;
37425;SDS011;23285;50.180;7.036;2022-12-07T03:28:33;10.63;;;9.53;;
37425;SDS011;23285;50.180;7.036;2022-12-07T03:31:23;11.83;;;9.80;;
37425;SDS011;23285;50.180;7.036;2022-12-07T03:34:54;10.60;;;9.07;;
37425;SDS011;23285;50.180;7.036;2022-12-07T03:37:26;12.07;;;10.70;;
37425;SDS011;23285;50.180;7.036;2022-12-07T03:40:33;10.20;;;9.20;;
37425;SDS011;23285;50.180;7.036;2022-12-07T03:43:20;11.07;;;9.10;;
37425;SDS011;23285;50.180;7.036;2022-12-07T03:55:08;11.50;;;10.20;;
37425;SDS011;23285;50.180;7.036;2022-12-07T03:58:04;13.73;;;11.43;;
37425;SDS011;23285;50.180;7.036;2022-12-07T04:00:50;11.70;;;10.47;;
37425;SDS011;23285;50.180;7.036;2022-12-07T04:03:35;13.20;;;11.50;;
37425;SDS011;23285;50.180;7.036;2022-12-07T04:06:20;11.60;;;9.97;;
37425;SDS011;23285;50.180;7.036;2022-12-07T04:09:06;14.40;;;11.73;;
37425;SDS011;23285;50.180;7.036;2022-12-07T04:11:51;16.57;;;12.50;;
37425;SDS011;23285;50.180;7.036;2022-12-07T04:14:36;13.43;;;11.50;;
37425;SDS011;23285;50.180;7.036;2022-12-07T04:17:21;12.33;;;11.03;;
37425;SDS011;23285;50.180;7.036;2022-12-07T04:20:07;12.20;;;10.90;;
37425;SDS011;23285;50.180;7.036;2022-12-07T04:22:52;16.40;;;12.47;;
37425;SDS011;23285;50.180;7.036;2022-12-07T04:25:37;13.00;;;10.23;;
37425;SDS011;23285;50.180;7.036;2022-12-07T04:28:23;15.53;;;12.83;;
37425;SDS011;23285;50.180;7.036;2022-12-07T04:31:08;12.60;;;11.20;;
37425;SDS011;23285;50.180;7.036;2022-12-07T04:33:53;11.57;;;10.07;;
37425;SDS011;23285;50.180;7.036;2022-12-07T04:36:38;11.93;;;10.53;;
37425;SDS011;23285;50.180;7.036;2022-12-07T04:39:30;11.90;;;10.60;;
37425;SDS011;23285;50.180;7.036;2022-12-07T04:42:16;12.83;;;10.60;;
37425;SDS011;23285;50.180;7.036;2022-12-07T04:45:01;10.07;;;8.97;;
37425;SDS011;23285;50.180;7.036;2022-12-07T04:47:47;12.53;;;9.40;;
37425;SDS011;23285;50.180;7.036;2022-12-07T04:50:32;11.07;;;9.80;;
37425;SDS011;23285;50.180;7.036;2022-12-07T04:53:19;10.80;;;9.70;;
37425;SDS011;23285;50.180;7.036;2022-12-07T04:56:04;10.47;;;9.37;;
37425;SDS011;23285;50.180;7.036;2022-12-07T04:58:49;13.10;;;10.50;;
37425;SDS011;23285;50.180;7.036;2022-12-07T05:01:35;11.27;;;9.43;;
37425;SDS011;23285;50.180;7.036;2022-12-07T05:04:20;10.47;;;9.47;;
37425;SDS011;23285;50.180;7.036;2022-12-07T05:07:05;9.73;;;8.77;;
37425;SDS011;23285;50.180;7.036;2022-12-07T05:09:50;11.63;;;10.43;;
37425;SDS011;23285;50.180;7.036;2022-12-07T05:12:35;10.07;;;8.87;;
37425;SDS011;23285;50.180;7.036;2022-12-07T05:15:21;9.40;;;8.40;;
37425;SDS011;23285;50.180;7.036;2022-12-07T05:18:06;10.60;;;9.50;;
37425;SDS011;23285;50.180;7.036;2022-12-07T05:20:51;11.53;;;9.13;;
37425;SDS011;23285;50.180;7.036;2022-12-07T05:23:36;11.80;;;10.03;;
37425;SDS011;23285;50.180;7.036;2022-12-07T05:26:21;12.10;;;10.47;;
37425;SDS011;23285;50.180;7.036;2022-12-07T05:29:07;13.70;;;11.10;;
37425;SDS011;23285;50.180;7.036;2022-12-07T05:31:52;10.13;;;9.10;;
37425;SDS011;23285;50.180;7.036;2022-12-07T05:34:37;11.83;;;9.27;;
37425;SDS011;23285;50.180;7.036;2022-12-07T05:37:22;14.17;;;10.63;;
37425;SDS011;23285;50.180;7.036;2022-12-07T05:40:07;12.10;;;9.00;;
37425;SDS011;23285;50.180;7.036;2022-12-07T05:42:52;11.83;;;9.50;;
37425;SDS011;23285;50.180;7.036;2022-12-07T05:45:37;12.10;;;9.27;;
37425;SDS011;23285;50.180;7.036;2022-12-07T05:48:22;16.10;;;10.50;;
37425;SDS011;23285;50.180;7.036;2022-12-07T05:51:07;12.47;;;10.03;;
37425;SDS011;23285;50.180;7.036;2022-12-07T05:53:52;9.03;;;7.73;;
37425;SDS011;23285;50.180;7.036;2022-12-07T05:56:37;8.37;;;6.70;;
37425;SDS011;23285;50.180;7.036;2022-12-07T05:59:22;10.43;;;7.90;;
37425;SDS011;23285;50.180;7.036;2022-12-07T06:02:09;8.23;;;6.30;;
37425;SDS011;23285;50.180;7.036;2022-12-07T06:04:54;6.80;;;6.10;;
37425;SDS011;23285;50.180;7.036;2022-12-07T06:07:39;8.30;;;6.80;;
37425;SDS011;23285;50.180;7.036;2022-12-07T06:10:24;7.90;;;6.27;;
37425;SDS011;23285;50.180;7.036;2022-12-07T06:13:10;7.70;;;6.90;;
37425;SDS011;23285;50.180;7.036;2022-12-07T06:15:55;7.73;;;6.37;;
37425;SDS011;23285;50.180;7.036;2022-12-07T06:18:40;9.33;;;7.03;;
37425;SDS011;23285;50.180;7.036;2022-12-07T06:21:25;9.17;;;5.90;;
37425;SDS011;23285;50.180;7.036;2022-12-07T06:24:11;8.70;;;6.17;;
37425;SDS011;23285;50.180;7.036;2022-12-07T06:26:57;6.93;;;6.17;;
37425;SDS011;23285;50.180;7.036;2022-12-07T06:29:42;9.20;;;6.83;;
37425;SDS011;23285;50.180;7.036;2022-12-07T06:32:27;6.10;;;5.50;;
37425;SDS011;23285;50.180;7.036;2022-12-07T06:35:11;6.80;;;6.10;;
37425;SDS011;23285;50.180;7.036;2022-12-07T06:37:56;8.10;;;5.80;;
37425;SDS011;23285;50.180;7.036;2022-12-07T06:40:42;8.10;;;6.80;;
37425;SDS011;23285;50.180;7.036;2022-12-07T06:43:27;8.10;;;5.83;;
37425;SDS011;23285;50.180;7.036;2022-12-07T06:46:12;6.47;;;5.17;;
37425;SDS011;23285;50.180;7.036;2022-12-07T06:48:58;5.67;;;4.57;;
37425;SDS011;23285;50.180;7.036;2022-12-07T06:51:43;5.20;;;4.70;;
37425;SDS011;23285;50.180;7.036;2022-12-07T06:54:28;7.40;;;5.97;;
37425;SDS011;23285;50.180;7.036;2022-12-07T06:57:14;5.83;;;4.37;;
37425;SDS011;23285;50.180;7.036;2022-12-07T06:59:59;6.70;;;4.77;;
37425;SDS011;23285;50.180;7.036;2022-12-07T07:02:45;5.60;;;4.80;;
37425;SDS011;23285;50.180;7.036;2022-12-07T07:05:30;6.07;;;5.07;;
37425;SDS011;23285;50.180;7.036;2022-12-07T07:08:15;6.17;;;5.30;;
37425;SDS011;23285;50.180;7.036;2022-12-07T07:11:00;5.80;;;5.07;;
37425;SDS011;23285;50.180;7.036;2022-12-07T07:13:45;5.47;;;4.77;;
37425;SDS011;23285;50.180;7.036;2022-12-07T07:16:30;5.77;;;5.20;;
37425;SDS011;23285;50.180;7.036;2022-12-07T07:19:16;6.33;;;5.70;;
37425;SDS011;23285;50.180;7.036;2022-12-07T07:22:01;8.53;;;6.10;;
37425;SDS011;23285;50.180;7.036;2022-12-07T07:24:46;7.40;;;5.67;;
37425;SDS011;23285;50.180;7.036;2022-12-07T07:27:31;6.23;;;5.20;;
37425;SDS011;23285;50.180;7.036;2022-12-07T07:30:16;6.40;;;5.20;;
37425;SDS011;23285;50.180;7.036;2022-12-07T07:33:01;7.67;;;5.63;;
37425;SDS011;23285;50.180;7.036;2022-12-07T07:35:47;7.73;;;6.37;;
37425;SDS011;23285;50.180;7.036;2022-12-07T07:38:32;5.10;;;4.60;;
37425;SDS011;23285;50.180;7.036;2022-12-07T07:41:17;4.63;;;4.23;;
37425;SDS011;23285;50.180;7.036;2022-12-07T07:44:02;5.23;;;4.60;;
37425;SDS011;23285;50.180;7.036;2022-12-07T07:46:47;5.27;;;4.70;;
37425;SDS011;23285;50.180;7.036;2022-12-07T07:49:32;6.43;;;4.67;;
37425;SDS011;23285;50.180;7.036;2022-12-07T07:52:18;4.73;;;4.20;;
37425;SDS011;23285;50.180;7.036;2022-12-07T07:55:03;4.80;;;4.13;;
37425;SDS011;23285;50.180;7.036;2022-12-07T07:57:48;5.57;;;4.60;;
37425;SDS011;23285;50.180;7.036;2022-12-07T08:00:33;4.87;;;4.37;;
37425;SDS011;23285;50.180;7.036;2022-12-07T08:03:18;5.33;;;4.47;;
37425;SDS011;23285;50.180;7.036;2022-12-07T08:06:03;6.17;;;4.73;;
37425;SDS011;23285;50.180;7.036;2022-12-07T08:08:49;5.30;;;4.80;;
37425;SDS011;23285;50.180;7.036;2022-12-07T08:11:33;6.30;;;5.27;;
37425;SDS011;23285;50.180;7.036;2022-12-07T08:14:20;7.10;;;4.90;;
37425;SDS011;23285;50.180;7.036;2022-12-07T08:17:05;5.60;;;4.17;;
37425;SDS011;23285;50.180;7.036;2022-12-07T08:19:50;5.37;;;3.77;;
37425;SDS011;23285;50.180;7.036;2022-12-07T08:22:35;4.83;;;3.67;;
37425;SDS011;23285;50.180;7.036;2022-12-07T08:25:21;4.73;;;4.20;;
37425;SDS011;23285;50.180;7.036;2022-12-07T08:28:09;4.07;;;3.63;;
37425;SDS011;23285;50.180;7.036;2022-12-07T08:30:58;4.73;;;3.83;;
37425;SDS011;23285;50.180;7.036;2022-12-07T08:33:45;5.67;;;4.40;;
37425;SDS011;23285;50.180;7.036;2022-12-07T08:36:31;7.73;;;5.67;;
37425;SDS011;23285;50.180;7.036;2022-12-07T08:39:16;8.70;;;6.90;;
37425;SDS011;23285;50.180;7.036;2022-12-07T08:42:01;10.13;;;6.30;;
37425;SDS011;23285;50.180;7.036;2022-12-07T08:44:46;7.13;;;5.10;;
37425;SDS011;23285;50.180;7.036;2022-12-07T08:47:31;4.83;;;3.93;;
37425;SDS011;23285;50.180;7.036;2022-12-07T08:50:17;7.03;;;4.77;;
37425;SDS011;23285;50.180;7.036;2022-12-07T08:53:02;5.27;;;4.50;;
37425;SDS011;23285;50.180;7.036;2022-12-07T08:55:49;6.93;;;4.90;;
37425;SDS011;23285;50.180;7.036;2022-12-07T08:58:34;7.87;;;6.10;;
37425;SDS011;23285;50.180;7.036;2022-12-07T09:01:21;9.47;;;6.30;;
37425;SDS011;23285;50.180;7.036;2022-12-07T09:04:06;6.57;;;5.97;;
37425;SDS011;23285;50.180;7.036;2022-12-07T09:06:51;7.87;;;5.73;;
37425;SDS011;23285;50.180;7.036;2022-12-07T09:09:36;10.73;;;5.37;;
37425;SDS011;23285;50.180;7.036;2022-12-07T09:12:21;9.37;;;6.47;;
37425;SDS011;23285;50.180;7.036;2022-12-07T09:15:07;8.40;;;5.90;;
37425;SDS011;23285;50.180;7.036;2022-12-07T09:17:52;7.33;;;5.13;;
37425;SDS011;23285;50.180;7.036;2022-12-07T09:20:37;8.70;;;5.83;;
37425;SDS011;23285;50.180;7.036;2022-12-07T09:23:22;6.17;;;5.30;;
37425;SDS011;23285;50.180;7.036;2022-12-07T09:26:07;9.33;;;6.63;;
37425;SDS011;23285;50.180;7.036;2022-12-07T09:28:52;7.23;;;5.23;;
37425;SDS011;23285;50.180;7.036;2022-12-07T09:31:37;7.73;;;5.37;;
37425;SDS011;23285;50.180;7.036;2022-12-07T09:34:23;7.83;;;5.27;;
37425;SDS011;23285;50.180;7.036;2022-12-07T09:37:08;11.13;;;5.40;;
37425;SDS011;23285;50.180;7.036;2022-12-07T09:39:53;8.47;;;4.80;;
37425;SDS011;23285;50.180;7.036;2022-12-07T09:42:39;6.27;;;4.90;;
37425;SDS011;23285;50.180;7.036;2022-12-07T09:45:35;6.57;;;4.60;;
37425;SDS011;23285;50.180;7.036;2022-12-07T09:51:14;7.50;;;4.67;;
37425;SDS011;23285;50.180;7.036;2022-12-07T09:54:01;6.40;;;4.47;;
37425;SDS011;23285;50.180;7.036;2022-12-07T09:56:46;6.00;;;3.77;;
37425;SDS011;23285;50.180;7.036;2022-12-07T09:59:32;4.03;;;3.60;;
37425;SDS011;23285;50.180;7.036;2022-12-07T10:02:25;5.97;;;3.60;;
37425;SDS011;23285;50.180;7.036;2022-12-07T10:08:11;3.70;;;3.40;;
37425;SDS011;23285;50.180;7.036;2022-12-07T10:10:57;5.40;;;3.10;;
37425;SDS011;23285;50.180;7.036;2022-12-07T10:13:46;4.73;;;3.37;;
37425;SDS011;23285;50.180;7.036;2022-12-07T10:16:40;5.30;;;3.00;;
37425;SDS011;23285;50.180;7.036;2022-12-07T10:19:27;5.03;;;3.47;;
37425;SDS011;23285;50.180;7.036;2022-12-07T10:22:13;6.97;;;2.57;;
37425;SDS011;23285;50.180;7.036;2022-12-07T10:25:07;6.40;;;2.93;;
37425;SDS011;23285;50.180;7.036;2022-12-07T10:28:13;4.57;;;3.10;;
37425;SDS011;23285;50.180;7.036;2022-12-07T10:31:01;4.87;;;2.70;;
37425;SDS011;23285;50.180;7.036;2022-12-07T10:33:54;5.50;;;2.80;;
37425;SDS011;23285;50.180;7.036;2022-12-07T10:36:40;4.60;;;2.73;;
37425;SDS011;23285;50.180;7.036;2022-12-07T10:39:26;7.17;;;3.07;;
37425;SDS011;23285;50.180;7.036;2022-12-07T10:42:21;4.57;;;3.13;;
37425;SDS011;23285;50.180;7.036;2022-12-07T10:45:16;6.73;;;2.80;;
37425;SDS011;23285;50.180;7.036;2022-12-07T10:51:27;4.93;;;3.17;;
37425;SDS011;23285;50.180;7.036;2022-12-07T10:57:39;4.17;;;2.73;;
37425;SDS011;23285;50.180;7.036;2022-12-07T11:00:30;4.40;;;2.90;;
37425;SDS011;23285;50.180;7.036;2022-12-07T11:03:30;5.93;;;2.93;;
37425;SDS011;23285;50.180;7.036;2022-12-07T11:22:04;4.20;;;2.97;;
37425;SDS011;23285;50.180;7.036;2022-12-07T11:25:02;4.30;;;2.90;;
37425;SDS011;23285;50.180;7.036;2022-12-07T11:34:54;5.47;;;2.87;;
37425;SDS011;23285;50.180;7.036;2022-12-07T11:37:43;4.77;;;3.07;;
37425;SDS011;23285;50.180;7.036;2022-12-07T11:40:30;4.53;;;2.97;;
37425;SDS011;23285;50.180;7.036;2022-12-07T11:46:12;4.90;;;3.00;;
37425;SDS011;23285;50.180;7.036;2022-12-07T11:52:01;5.33;;;3.00;;
37425;SDS011;23285;50.180;7.036;2022-12-07T11:54:49;6.20;;;2.80;;
37425;SDS011;23285;50.180;7.036;2022-12-07T11:57:38;6.17;;;3.10;;
37425;SDS011;23285;50.180;7.036;2022-12-07T12:00:28;4.73;;;2.50;;
37425;SDS011;23285;50.180;7.036;2022-12-07T12:03:15;5.67;;;2.30;;
37425;SDS011;23285;50.180;7.036;2022-12-07T12:06:16;4.47;;;2.00;;
37425;SDS011;23285;50.180;7.036;2022-12-07T12:21:18;3.63;;;2.13;;
37425;SDS011;23285;50.180;7.036;2022-12-07T12:24:11;4.20;;;2.17;;
37425;SDS011;23285;50.180;7.036;2022-12-07T12:27:08;2.53;;;1.80;;
37425;SDS011;23285;50.180;7.036;2022-12-07T12:30:05;5.00;;;2.40;;
37425;SDS011;23285;50.180;7.036;2022-12-07T12:41:52;5.33;;;2.37;;
37425;SDS011;23285;50.180;7.036;2022-12-07T12:44:38;4.30;;;1.97;;
37425;SDS011;23285;50.180;7.036;2022-12-07T12:50:36;3.37;;;2.20;;
37425;SDS011;23285;50.180;7.036;2022-12-07T12:53:25;7.73;;;2.40;;
37425;SDS011;23285;50.180;7.036;2022-12-07T12:56:22;4.17;;;2.37;;
37425;SDS011;23285;50.180;7.036;2022-12-07T12:59:29;3.87;;;2.50;;
37425;SDS011;23285;50.180;7.036;2022-12-07T13:02:28;5.27;;;2.83;;
37425;SDS011;23285;50.180;7.036;2022-12-07T13:05:21;4.77;;;2.70;;
37425;SDS011;23285;50.180;7.036;2022-12-07T13:08:20;4.70;;;2.80;;
37425;SDS011;23285;50.180;7.036;2022-12-07T13:11:19;4.50;;;2.83;;
37425;SDS011;23285;50.180;7.036;2022-12-07T13:20:39;8.90;;;3.20;;
37425;SDS011;23285;50.180;7.036;2022-12-07T13:29:17;4.03;;;2.87;;
37425;SDS011;23285;50.180;7.036;2022-12-07T13:32:19;4.43;;;2.57;;
37425;SDS011;23285;50.180;7.036;2022-12-07T13:38:23;6.37;;;2.90;;
37425;SDS011;23285;50.180;7.036;2022-12-07T13:41:17;3.70;;;2.60;;
37425;SDS011;23285;50.180;7.036;2022-12-07T13:44:08;6.10;;;2.90;;
37425;SDS011;23285;50.180;7.036;2022-12-07T13:49:48;4.30;;;2.60;;
37425;SDS011;23285;50.180;7.036;2022-12-07T13:52:33;5.63;;;2.63;;
37425;SDS011;23285;50.180;7.036;2022-12-07T13:55:28;5.23;;;2.50;;
37425;SDS011;23285;50.180;7.036;2022-12-07T13:58:14;6.40;;;2.73;;
37425;SDS011;23285;50.180;7.036;2022-12-07T14:01:00;4.03;;;2.40;;
37425;SDS011;23285;50.180;7.036;2022-12-07T14:03:45;5.10;;;2.50;;
37425;SDS011;23285;50.180;7.036;2022-12-07T14:06:30;6.43;;;2.80;;
37425;SDS011;23285;50.180;7.036;2022-12-07T14:09:20;4.43;;;2.40;;
37425;SDS011;23285;50.180;7.036;2022-12-07T14:12:07;5.87;;;2.43;;
37425;SDS011;23285;50.180;7.036;2022-12-07T14:14:51;6.70;;;2.03;;
37425;SDS011;23285;50.180;7.036;2022-12-07T14:17:49;5.20;;;2.00;;
37425;SDS011;23285;50.180;7.036;2022-12-07T14:20:38;4.20;;;2.07;;
37425;SDS011;23285;50.180;7.036;2022-12-07T14:23:25;4.90;;;2.53;;
37425;SDS011;23285;50.180;7.036;2022-12-07T14:26:13;3.53;;;1.70;;
37425;SDS011;23285;50.180;7.036;2022-12-07T14:35:15;5.50;;;2.00;;
37425;SDS011;23285;50.180;7.036;2022-12-07T14:38:01;3.97;;;2.00;;
37425;SDS011;23285;50.180;7.036;2022-12-07T14:40:46;2.57;;;1.87;;
37425;SDS011;23285;50.180;7.036;2022-12-07T14:43:31;2.67;;;1.70;;
37425;SDS011;23285;50.180;7.036;2022-12-07T14:46:16;3.97;;;2.10;;
37425;SDS011;23285;50.180;7.036;2022-12-07T14:49:01;4.17;;;2.40;;
37425;SDS011;23285;50.180;7.036;2022-12-07T14:51:46;5.17;;;1.97;;
37425;SDS011;23285;50.180;7.036;2022-12-07T14:54:32;6.67;;;2.40;;
37425;SDS011;23285;50.180;7.036;2022-12-07T14:57:18;5.00;;;2.13;;
37425;SDS011;23285;50.180;7.036;2022-12-07T15:00:03;6.13;;;2.40;;
37425;SDS011;23285;50.180;7.036;2022-12-07T15:02:48;5.40;;;2.17;;
37425;SDS011;23285;50.180;7.036;2022-12-07T15:05:34;7.53;;;2.10;;
37425;SDS011;23285;50.180;7.036;2022-12-07T15:08:20;4.23;;;2.00;;
37425;SDS011;23285;50.180;7.036;2022-12-07T15:11:05;5.07;;;1.90;;
37425;SDS011;23285;50.180;7.036;2022-12-07T15:13:50;5.67;;;2.13;;
37425;SDS011;23285;50.180;7.036;2022-12-07T15:16:55;5.13;;;2.40;;
37425;SDS011;23285;50.180;7.036;2022-12-07T15:19:40;5.13;;;2.50;;
37425;SDS011;23285;50.180;7.036;2022-12-07T15:22:25;6.23;;;2.50;;
37425;SDS011;23285;50.180;7.036;2022-12-07T15:25:14;5.87;;;2.43;;
37425;SDS011;23285;50.180;7.036;2022-12-07T15:27:59;3.83;;;2.13;;
37425;SDS011;23285;50.180;7.036;2022-12-07T15:30:44;7.40;;;2.87;;
37425;SDS011;23285;50.180;7.036;2022-12-07T15:33:29;3.50;;;2.40;;
37425;SDS011;23285;50.180;7.036;2022-12-07T15:36:19;5.43;;;2.57;;
37425;SDS011;23285;50.180;7.036;2022-12-07T15:39:05;4.80;;;2.57;;
37425;SDS011;23285;50.180;7.036;2022-12-07T15:41:50;4.17;;;2.40;;
37425;SDS011;23285;50.180;7.036;2022-12-07T15:44:35;4.17;;;2.17;;
37425;SDS011;23285;50.180;7.036;2022-12-07T15:47:40;4.20;;;2.30;;
37425;SDS011;23285;50.180;7.036;2022-12-07T15:50:26;5.57;;;2.57;;
37425;SDS011;23285;50.180;7.036;2022-12-07T15:53:11;3.73;;;2.13;;
37425;SDS011;23285;50.180;7.036;2022-12-07T15:55:56;2.93;;;2.20;;
37425;SDS011;23285;50.180;7.036;2022-12-07T15:58:42;4.00;;;2.17;;
37425;SDS011;23285;50.180;7.036;2022-12-07T16:01:26;7.53;;;2.97;;
37425;SDS011;23285;50.180;7.036;2022-12-07T16:04:12;5.93;;;2.70;;
37425;SDS011;23285;50.180;7.036;2022-12-07T16:06:57;3.40;;;2.87;;
37425;SDS011;23285;50.180;7.036;2022-12-07T16:13:19;7.60;;;2.93;;
37425;SDS011;23285;50.180;7.036;2022-12-07T16:16:06;11.10;;;7.13;;
37425;SDS011;23285;50.180;7.036;2022-12-07T16:18:52;7.67;;;3.73;;
37425;SDS011;23285;50.180;7.036;2022-12-07T16:21:38;8.00;;;4.80;;
37425;SDS011;23285;50.180;7.036;2022-12-07T16:24:23;5.70;;;3.47;;
37425;SDS011;23285;50.180;7.036;2022-12-07T16:27:09;7.00;;;4.43;;
37425;SDS011;23285;50.180;7.036;2022-12-07T16:29:54;8.43;;;3.87;;
37425;SDS011;23285;50.180;7.036;2022-12-07T16:32:40;3.70;;;3.40;;
37425;SDS011;23285;50.180;7.036;2022-12-07T16:35:25;7.70;;;3.63;;
37425;SDS011;23285;50.180;7.036;2022-12-07T16:38:10;7.50;;;4.27;;
37425;SDS011;23285;50.180;7.036;2022-12-07T16:40:55;6.03;;;4.30;;
37425;SDS011;23285;50.180;7.036;2022-12-07T16:43:40;5.83;;;3.80;;
37425;SDS011;23285;50.180;7.036;2022-12-07T16:46:25;6.73;;;4.33;;
37425;SDS011;23285;50.180;7.036;2022-12-07T16:49:14;8.83;;;5.17;;
37425;SDS011;23285;50.180;7.036;2022-12-07T16:52:00;7.47;;;4.60;;
37425;SDS011;23285;50.180;7.036;2022-12-07T16:54:45;7.03;;;4.87;;
37425;SDS011;23285;50.180;7.036;2022-12-07T16:57:30;7.63;;;5.17;;
37425;SDS011;23285;50.180;7.036;2022-12-07T17:00:18;5.67;;;4.07;;
37425;SDS011;23285;50.180;7.036;2022-12-07T17:03:03;7.37;;;4.50;;
37425;SDS011;23285;50.180;7.036;2022-12-07T17:05:48;10.73;;;4.63;;
37425;SDS011;23285;50.180;7.036;2022-12-07T17:08:33;7.80;;;4.20;;
37425;SDS011;23285;50.180;7.036;2022-12-07T17:11:21;6.50;;;4.33;;
37425;SDS011;23285;50.180;7.036;2022-12-07T17:14:09;10.67;;;6.30;;
37425;SDS011;23285;50.180;7.036;2022-12-07T17:17:13;14.53;;;9.27;;
37425;SDS011;23285;50.180;7.036;2022-12-07T17:19:58;22.33;;;12.80;;
37425;SDS011;23285;50.180;7.036;2022-12-07T17:22:43;19.10;;;12.47;;
37425;SDS011;23285;50.180;7.036;2022-12-07T17:25:28;6.77;;;5.33;;
37425;SDS011;23285;50.180;7.036;2022-12-07T17:28:14;6.57;;;4.77;;
37425;SDS011;23285;50.180;7.036;2022-12-07T17:30:59;6.70;;;5.63;;
37425;SDS011;23285;50.180;7.036;2022-12-07T17:33:44;11.70;;;7.47;;
37425;SDS011;23285;50.180;7.036;2022-12-07T17:36:30;9.93;;;6.43;;
37425;SDS011;23285;50.180;7.036;2022-12-07T17:39:17;9.97;;;6.23;;
37425;SDS011;23285;50.180;7.036;2022-12-07T17:42:03;10.87;;;5.87;;
37425;SDS011;23285;50.180;7.036;2022-12-07T17:45:07;8.17;;;6.27;;
37425;SDS011;23285;50.180;7.036;2022-12-07T17:47:54;12.63;;;7.33;;
37425;SDS011;23285;50.180;7.036;2022-12-07T17:50:39;9.93;;;6.90;;
37425;SDS011;23285;50.180;7.036;2022-12-07T17:53:42;10.17;;;6.20;;
37425;SDS011;23285;50.180;7.036;2022-12-07T17:56:27;10.30;;;6.57;;
37425;SDS011;23285;50.180;7.036;2022-12-07T17:59:12;8.33;;;5.50;;
37425;SDS011;23285;50.180;7.036;2022-12-07T18:01:58;9.53;;;5.70;;
37425;SDS011;23285;50.180;7.036;2022-12-07T18:04:43;7.10;;;6.00;;
37425;SDS011;23285;50.180;7.036;2022-12-07T18:07:29;7.33;;;5.87;;
37425;SDS011;23285;50.180;7.036;2022-12-07T18:10:14;8.43;;;5.73;;
37425;SDS011;23285;50.180;7.036;2022-12-07T18:13:01;11.13;;;7.33;;
37425;SDS011;23285;50.180;7.036;2022-12-07T18:16:12;7.60;;;6.10;;
37425;SDS011;23285;50.180;7.036;2022-12-07T18:19:01;11.57;;;7.20;;
37425;SDS011;23285;50.180;7.036;2022-12-07T18:21:48;11.37;;;7.60;;
37425;SDS011;23285;50.180;7.036;2022-12-07T18:24:33;13.30;;;8.17;;
37425;SDS011;23285;50.180;7.036;2022-12-07T18:27:18;16.60;;;7.50;;
37425;SDS011;23285;50.180;7.036;2022-12-07T18:30:03;15.60;;;8.07;;
37425;SDS011;23285;50.180;7.036;2022-12-07T18:32:49;13.27;;;8.50;;
37425;SDS011;23285;50.180;7.036;2022-12-07T18:35:34;11.23;;;7.37;;
37425;SDS011;23285;50.180;7.036;2022-12-07T18:38:21;11.67;;;8.07;;
37425;SDS011;23285;50.180;7.036;2022-12-07T18:41:06;10.30;;;7.97;;